WetterOnline ( https://www.wetteronline.de )

Wetter aktuell Der Rennsteig (in 900m)

Aktuelles Wetter: Schmücke (948m)

6-stündlich | Neueste Meldungen
Ortszeit Temperatur Wetter
So, 14.04. 20:00 10.8° C bedeckt
So, 14.04. 14:00 12.8° C bedeckt
So, 14.04. 8:00 9.7° C leicht bewölkt
So, 14.04. 2:00 11.9° C wolkig
Sa, 13.04. 20:00 13.9° C wolkig
Sa, 13.04. 14:00 15.5° C wolkig
Sa, 13.04. 8:00 8.5° C Nebel
Sa, 13.04. 2:00 8.4° C wolkig
Ortszeit Temperatur Wetter
Mo, 15.04. 1:30 6.9° C bewölkt
Mo, 15.04. 1:20 6.9° C bewölkt
Mo, 15.04. 1:10 6.9° C bedeckt
Mo, 15.04. 1:00 7.0° C bedeckt
Mo, 15.04. 0:50 7.0° C bedeckt
Mo, 15.04. 0:40 7.0° C bedeckt
Mo, 15.04. 0:30 7.1° C bedeckt
Mo, 15.04. 0:00 7.0° C bewölkt
So, 14.04. 23:30 7.3° C wolkig
So, 14.04. 23:00 7.8° C bedeckt
So, 14.04. 22:30 8.3° C bewölkt
Ortszeit Relative Feuchte Sichtweite
So, 14.04. 20:00 63% 45 km
So, 14.04. 14:00 66% 50 km
So, 14.04. 8:00 93% 35 km
So, 14.04. 2:00 76% 55 km
Sa, 13.04. 20:00 70% 50 km
Sa, 13.04. 14:00 66% 50 km
Sa, 13.04. 8:00 97% 0.6 km
Sa, 13.04. 2:00 95% 30 km
Ortszeit Relative Feuchte Sichtweite
Mo, 15.04. 1:30 78% 35 km
Mo, 15.04. 1:20 78% -
Mo, 15.04. 1:10 78% -
Mo, 15.04. 1:00 79% 35 km
Mo, 15.04. 0:50 79% -
Mo, 15.04. 0:40 79% -
Mo, 15.04. 0:30 78% 35 km
Mo, 15.04. 0:00 77% 35 km
So, 14.04. 23:30 77% 40 km
So, 14.04. 23:00 79% 35 km
So, 14.04. 22:30 77% 35 km
Ortszeit Niederschlagsmenge Niederschlagsart
So, 14.04. 20:00 0.0 l/m2 in 12 Std. -
So, 14.04. 14:00 0.0 l/m2 in 6 Std. -
So, 14.04. 8:00 0.0 l/m2 in 12 Std. -
So, 14.04. 2:00 0.0 l/m2 in 6 Std. -
Sa, 13.04. 20:00 0.0 l/m2 in 12 Std. -
Sa, 13.04. 14:00 0.0 l/m2 in 6 Std. -
Sa, 13.04. 8:00 0.0 l/m2 in 12 Std. -
Sa, 13.04. 2:00 0.0 l/m2 in 6 Std. -
Ortszeit Niederschlagsmenge Niederschlagsart
Mo, 15.04. 1:30 0.0 l/m2 in 30 Min -
Mo, 15.04. 1:20 keine Meldung -
Mo, 15.04. 1:10 keine Meldung -
Mo, 15.04. 1:00 0.0 l/m2 in 1 Std. -
Mo, 15.04. 0:50 keine Meldung -
Mo, 15.04. 0:40 keine Meldung -
Mo, 15.04. 0:30 0.0 l/m2 in 30 Min -
Mo, 15.04. 0:00 0.0 l/m2 in 1 Std. -
So, 14.04. 23:30 0.0 l/m2 in 30 Min -
So, 14.04. 23:00 0.0 l/m2 in 1 Std. -
So, 14.04. 22:30 0.0 l/m2 in 30 Min -
Ortszeit Stärke Spitze Richtung
km/h Bft. km/h Grad Sektor
So, 14.04. 20:00 11 2 50 260° W
So, 14.04. 14:00 22 4 47 250° W
So, 14.04. 8:00 13 3 37 230° SW
So, 14.04. 2:00 22 4 40 240° SW
Sa, 13.04. 20:00 22 4 54 220° SW
Sa, 13.04. 14:00 20 4 44 220° SW
Sa, 13.04. 8:00 14 3 25 230° SW
Sa, 13.04. 2:00 14 3 32 240° SW
Ortszeit Stärke Spitze Richtung
km/h Bft. km/h Grad Sektor
Mo, 15.04. 1:30 11 2 18 60° NO
Mo, 15.04. 1:20 11 2 - 60° NO
Mo, 15.04. 1:10 11 2 - 40° NO
Mo, 15.04. 1:00 11 2 18 50° NO
Mo, 15.04. 0:50 11 2 - 50° NO
Mo, 15.04. 0:40 13 3 - 60° NO
Mo, 15.04. 0:30 11 2 18 50° NO
Mo, 15.04. 0:00 14 3 22 50° NO
So, 14.04. 23:30 14 3 18 30° NO
So, 14.04. 23:00 13 3 19 50° NO
So, 14.04. 22:30 11 2 18 30° NO
Ortszeit Untergrenze Bedeckung Gattung
total tief tief mittel hoch
So, 14.04. 20:00 4200 m 8/8 8/8 - - -
So, 14.04. 14:00 840 m 8/8 8/8 - - -
So, 14.04. 8:00 8100 m 5/8 0/8 - - -
So, 14.04. 2:00 8100 m 8/8 0/8 - - -
Sa, 13.04. 20:00 7800 m 8/8 0/8 - - -
Sa, 13.04. 14:00 660 m 8/8 2/8 - - -
Sa, 13.04. 8:00 <30 m 8/8 0/8 - - -
Sa, 13.04. 2:00 300 m 8/8 1/8 - - -
Ortszeit Bedeckungsgrad in Achtel und Wolkenuntergrenze
Mo, 15.04. 1:30 5(810m) 7(2400m) 8(3000m)
Mo, 15.04. 1:20 5(810m) 7(2400m) 8(3000m)
Mo, 15.04. 1:10 8
Mo, 15.04. 1:00 1(1350m) 7(1800m) 8(2700m)
Mo, 15.04. 0:50 1(1350m) 7(1800m) 8(2700m)
Mo, 15.04. 0:40 8
Mo, 15.04. 0:30 1(930m) 8(1800m) 8(3000m)
Mo, 15.04. 0:00 4(1170m) 7(3300m) 8(4500m)
So, 14.04. 23:30 2(1800m) 8(3300m) 8(4800m)
So, 14.04. 23:00 5(1500m) 8(2100m) 8(3600m)
So, 14.04. 22:30 2(990m) 7(1500m) 8(5400m)
Ortszeit Stationsdruck (hPa) Tendenz (hPa in 3 Std.)
So, 14.04. 20:00 911 - 0,8
So, 14.04. 14:00 913 - 0,3
So, 14.04. 8:00 912 + 0,3
So, 14.04. 2:00 913 - 1,4
Sa, 13.04. 20:00 916 - 1,3
Sa, 13.04. 14:00 919 - 1,0
Sa, 13.04. 8:00 920 0,0
Sa, 13.04. 2:00 921 - 0,3
Ortszeit Stationsdruck (hPa) Tendenz (hPa in 3 Std.)
Mo, 15.04. 1:30 907 - 2,4
Mo, 15.04. 1:20 907 keine Meldung
Mo, 15.04. 1:10 907 keine Meldung
Mo, 15.04. 1:00 907 - 2,8
Mo, 15.04. 0:50 907 keine Meldung
Mo, 15.04. 0:40 907 keine Meldung
Mo, 15.04. 0:30 908 - 2,5
Mo, 15.04. 0:00 908 - 2,1
So, 14.04. 23:30 909 - 1,8
So, 14.04. 23:00 909 - 1,7
So, 14.04. 22:30 910 - 1,2
Ortszeit Schneehöhe (cm)
So, 14.04. 20:00 0
So, 14.04. 14:00 0
So, 14.04. 8:00 0
So, 14.04. 2:00 0
Sa, 13.04. 20:00 0
Sa, 13.04. 14:00 0
Sa, 13.04. 8:00 0
Sa, 13.04. 2:00 0
Ortszeit Schneehöhe (cm)
Mo, 15.04. 1:30 0
Mo, 15.04. 1:20 0
Mo, 15.04. 1:10 -
Mo, 15.04. 1:00 0
Mo, 15.04. 0:50 0
Mo, 15.04. 0:40 -
Mo, 15.04. 0:30 0
Mo, 15.04. 0:00 0
So, 14.04. 23:30 0
So, 14.04. 23:00 0
So, 14.04. 22:30 0
Link zu dieser Seite / Seite empfehlen

Das Wetter in ...